sensor_id;sensor_type;location;lat;lon;timestamp;P1;durP1;ratioP1;P2;durP2;ratioP2
9914;SDS011;4996;48.746;9.174;2023-12-20T00:01:18;1.67;;;1.10;;
9914;SDS011;4996;48.746;9.174;2023-12-20T00:03:43;1.70;;;1.20;;
9914;SDS011;4996;48.746;9.174;2023-12-20T00:06:09;1.57;;;1.10;;
9914;SDS011;4996;48.746;9.174;2023-12-20T00:08:35;1.80;;;1.10;;
9914;SDS011;4996;48.746;9.174;2023-12-20T00:11:00;1.73;;;1.50;;
9914;SDS011;4996;48.746;9.174;2023-12-20T00:13:26;1.30;;;1.20;;
9914;SDS011;4996;48.746;9.174;2023-12-20T00:15:51;1.47;;;1.10;;
9914;SDS011;4996;48.746;9.174;2023-12-20T00:18:17;2.00;;;1.17;;
9914;SDS011;4996;48.746;9.174;2023-12-20T00:20:42;2.00;;;1.10;;
9914;SDS011;4996;48.746;9.174;2023-12-20T00:23:08;1.27;;;0.90;;
9914;SDS011;4996;48.746;9.174;2023-12-20T00:25:34;1.53;;;1.03;;
9914;SDS011;4996;48.746;9.174;2023-12-20T00:28:00;0.93;;;0.73;;
9914;SDS011;4996;48.746;9.174;2023-12-20T00:30:26;1.10;;;1.00;;
9914;SDS011;4996;48.746;9.174;2023-12-20T00:32:51;1.20;;;0.90;;
9914;SDS011;4996;48.746;9.174;2023-12-20T00:35:17;0.90;;;0.80;;
9914;SDS011;4996;48.746;9.174;2023-12-20T00:37:43;2.47;;;1.00;;
9914;SDS011;4996;48.746;9.174;2023-12-20T00:40:09;1.23;;;0.73;;
9914;SDS011;4996;48.746;9.174;2023-12-20T00:42:35;1.30;;;0.83;;
9914;SDS011;4996;48.746;9.174;2023-12-20T00:45:01;1.27;;;1.10;;
9914;SDS011;4996;48.746;9.174;2023-12-20T00:47:27;1.27;;;0.70;;
9914;SDS011;4996;48.746;9.174;2023-12-20T00:49:53;4.93;;;1.10;;
9914;SDS011;4996;48.746;9.174;2023-12-20T00:52:18;2.73;;;1.07;;
9914;SDS011;4996;48.746;9.174;2023-12-20T00:54:44;1.50;;;0.73;;
9914;SDS011;4996;48.746;9.174;2023-12-20T00:57:10;2.83;;;0.87;;
9914;SDS011;4996;48.746;9.174;2023-12-20T00:59:35;0.60;;;0.53;;
9914;SDS011;4996;48.746;9.174;2023-12-20T01:02:01;1.10;;;0.87;;
9914;SDS011;4996;48.746;9.174;2023-12-20T01:04:27;1.40;;;1.10;;
9914;SDS011;4996;48.746;9.174;2023-12-20T01:06:53;0.93;;;0.60;;
9914;SDS011;4996;48.746;9.174;2023-12-20T01:09:18;1.30;;;0.90;;
9914;SDS011;4996;48.746;9.174;2023-12-20T01:11:44;1.73;;;1.10;;
9914;SDS011;4996;48.746;9.174;2023-12-20T01:14:11;0.80;;;0.60;;
9914;SDS011;4996;48.746;9.174;2023-12-20T01:16:37;0.77;;;0.60;;
9914;SDS011;4996;48.746;9.174;2023-12-20T01:19:02;0.80;;;0.63;;
9914;SDS011;4996;48.746;9.174;2023-12-20T01:21:28;1.07;;;0.80;;
9914;SDS011;4996;48.746;9.174;2023-12-20T01:23:53;1.40;;;0.83;;
9914;SDS011;4996;48.746;9.174;2023-12-20T01:26:18;0.80;;;0.70;;
9914;SDS011;4996;48.746;9.174;2023-12-20T01:28:44;1.50;;;0.97;;
9914;SDS011;4996;48.746;9.174;2023-12-20T01:31:09;1.10;;;0.60;;
9914;SDS011;4996;48.746;9.174;2023-12-20T01:33:35;1.20;;;0.80;;
9914;SDS011;4996;48.746;9.174;2023-12-20T01:36:00;0.80;;;0.70;;
9914;SDS011;4996;48.746;9.174;2023-12-20T01:38:26;0.70;;;0.67;;
9914;SDS011;4996;48.746;9.174;2023-12-20T01:40:52;1.27;;;0.80;;
9914;SDS011;4996;48.746;9.174;2023-12-20T01:43:17;1.30;;;1.13;;
9914;SDS011;4996;48.746;9.174;2023-12-20T01:45:43;4.60;;;1.10;;
9914;SDS011;4996;48.746;9.174;2023-12-20T01:48:08;1.77;;;1.20;;
9914;SDS011;4996;48.746;9.174;2023-12-20T01:50:35;1.57;;;1.13;;
9914;SDS011;4996;48.746;9.174;2023-12-20T01:53:02;1.30;;;1.20;;
9914;SDS011;4996;48.746;9.174;2023-12-20T01:55:31;1.07;;;0.97;;
9914;SDS011;4996;48.746;9.174;2023-12-20T01:57:59;1.67;;;1.37;;
9914;SDS011;4996;48.746;9.174;2023-12-20T02:00:26;1.67;;;1.57;;
9914;SDS011;4996;48.746;9.174;2023-12-20T02:02:54;1.33;;;1.23;;
9914;SDS011;4996;48.746;9.174;2023-12-20T02:05:22;3.90;;;1.57;;
9914;SDS011;4996;48.746;9.174;2023-12-20T02:07:48;2.67;;;1.23;;
9914;SDS011;4996;48.746;9.174;2023-12-20T02:10:14;1.20;;;1.03;;
9914;SDS011;4996;48.746;9.174;2023-12-20T02:12:40;1.87;;;1.00;;
9914;SDS011;4996;48.746;9.174;2023-12-20T02:15:06;1.57;;;1.00;;
9914;SDS011;4996;48.746;9.174;2023-12-20T02:17:32;1.53;;;1.10;;
9914;SDS011;4996;48.746;9.174;2023-12-20T02:19:58;1.30;;;1.10;;
9914;SDS011;4996;48.746;9.174;2023-12-20T02:22:24;0.90;;;0.77;;
9914;SDS011;4996;48.746;9.174;2023-12-20T02:24:49;1.63;;;1.07;;
9914;SDS011;4996;48.746;9.174;2023-12-20T02:27:15;1.10;;;0.90;;
9914;SDS011;4996;48.746;9.174;2023-12-20T02:29:43;1.57;;;1.00;;
9914;SDS011;4996;48.746;9.174;2023-12-20T02:32:08;0.63;;;0.63;;
9914;SDS011;4996;48.746;9.174;2023-12-20T02:34:34;2.40;;;1.00;;
9914;SDS011;4996;48.746;9.174;2023-12-20T02:36:59;1.00;;;0.80;;
9914;SDS011;4996;48.746;9.174;2023-12-20T02:39:25;1.03;;;0.70;;
9914;SDS011;4996;48.746;9.174;2023-12-20T02:41:51;0.83;;;0.67;;
9914;SDS011;4996;48.746;9.174;2023-12-20T02:44:16;0.60;;;0.57;;
9914;SDS011;4996;48.746;9.174;2023-12-20T02:46:42;0.70;;;0.60;;
9914;SDS011;4996;48.746;9.174;2023-12-20T02:49:07;1.13;;;0.63;;
9914;SDS011;4996;48.746;9.174;2023-12-20T02:51:33;1.03;;;0.70;;
9914;SDS011;4996;48.746;9.174;2023-12-20T02:53:58;0.60;;;0.53;;
9914;SDS011;4996;48.746;9.174;2023-12-20T02:56:23;0.77;;;0.50;;
9914;SDS011;4996;48.746;9.174;2023-12-20T02:58:49;1.00;;;0.60;;
9914;SDS011;4996;48.746;9.174;2023-12-20T03:01:15;1.13;;;0.60;;
9914;SDS011;4996;48.746;9.174;2023-12-20T03:03:40;0.73;;;0.53;;
9914;SDS011;4996;48.746;9.174;2023-12-20T03:06:05;0.77;;;0.50;;
9914;SDS011;4996;48.746;9.174;2023-12-20T03:08:31;0.70;;;0.53;;
9914;SDS011;4996;48.746;9.174;2023-12-20T03:10:58;3.40;;;0.50;;
9914;SDS011;4996;48.746;9.174;2023-12-20T03:13:26;0.77;;;0.50;;
9914;SDS011;4996;48.746;9.174;2023-12-20T03:15:52;0.60;;;0.60;;
9914;SDS011;4996;48.746;9.174;2023-12-20T03:18:17;2.77;;;0.80;;
9914;SDS011;4996;48.746;9.174;2023-12-20T03:20:43;1.10;;;0.70;;
9914;SDS011;4996;48.746;9.174;2023-12-20T03:23:08;1.40;;;0.80;;
9914;SDS011;4996;48.746;9.174;2023-12-20T03:25:34;0.87;;;0.60;;
9914;SDS011;4996;48.746;9.174;2023-12-20T03:28:00;0.63;;;0.43;;
9914;SDS011;4996;48.746;9.174;2023-12-20T03:30:25;0.80;;;0.50;;
9914;SDS011;4996;48.746;9.174;2023-12-20T03:32:51;0.60;;;0.53;;
9914;SDS011;4996;48.746;9.174;2023-12-20T03:35:16;0.70;;;0.50;;
9914;SDS011;4996;48.746;9.174;2023-12-20T03:37:42;0.70;;;0.50;;
9914;SDS011;4996;48.746;9.174;2023-12-20T03:40:08;0.70;;;0.50;;
9914;SDS011;4996;48.746;9.174;2023-12-20T03:42:34;1.00;;;0.50;;
9914;SDS011;4996;48.746;9.174;2023-12-20T03:44:59;0.97;;;0.50;;
9914;SDS011;4996;48.746;9.174;2023-12-20T03:47:25;0.60;;;0.40;;
9914;SDS011;4996;48.746;9.174;2023-12-20T03:49:50;0.50;;;0.37;;
9914;SDS011;4996;48.746;9.174;2023-12-20T03:52:16;0.70;;;0.40;;
9914;SDS011;4996;48.746;9.174;2023-12-20T03:54:41;0.63;;;0.40;;
9914;SDS011;4996;48.746;9.174;2023-12-20T03:57:07;0.80;;;0.47;;
9914;SDS011;4996;48.746;9.174;2023-12-20T03:59:36;0.70;;;0.50;;
9914;SDS011;4996;48.746;9.174;2023-12-20T04:02:02;0.47;;;0.27;;
9914;SDS011;4996;48.746;9.174;2023-12-20T04:04:28;0.47;;;0.33;;
9914;SDS011;4996;48.746;9.174;2023-12-20T04:06:55;0.50;;;0.30;;
9914;SDS011;4996;48.746;9.174;2023-12-20T04:09:20;0.50;;;0.30;;
9914;SDS011;4996;48.746;9.174;2023-12-20T04:11:46;0.40;;;0.30;;
9914;SDS011;4996;48.746;9.174;2023-12-20T04:14:11;0.57;;;0.40;;
9914;SDS011;4996;48.746;9.174;2023-12-20T04:16:37;0.40;;;0.30;;
9914;SDS011;4996;48.746;9.174;2023-12-20T04:19:04;0.40;;;0.20;;
9914;SDS011;4996;48.746;9.174;2023-12-20T04:21:29;0.60;;;0.40;;
9914;SDS011;4996;48.746;9.174;2023-12-20T04:23:55;7.73;;;0.63;;
9914;SDS011;4996;48.746;9.174;2023-12-20T04:26:20;0.40;;;0.20;;
9914;SDS011;4996;48.746;9.174;2023-12-20T04:28:46;1.37;;;0.33;;
9914;SDS011;4996;48.746;9.174;2023-12-20T04:31:11;0.40;;;0.30;;
9914;SDS011;4996;48.746;9.174;2023-12-20T04:33:37;0.40;;;0.30;;
9914;SDS011;4996;48.746;9.174;2023-12-20T04:36:02;0.40;;;0.20;;
9914;SDS011;4996;48.746;9.174;2023-12-20T04:38:29;0.50;;;0.40;;
9914;SDS011;4996;48.746;9.174;2023-12-20T04:40:55;0.43;;;0.27;;
9914;SDS011;4996;48.746;9.174;2023-12-20T04:43:20;0.43;;;0.30;;
9914;SDS011;4996;48.746;9.174;2023-12-20T04:45:46;4.73;;;0.43;;
9914;SDS011;4996;48.746;9.174;2023-12-20T04:48:11;0.40;;;0.30;;
9914;SDS011;4996;48.746;9.174;2023-12-20T04:50:37;1.23;;;0.50;;
9914;SDS011;4996;48.746;9.174;2023-12-20T04:53:03;0.40;;;0.30;;
9914;SDS011;4996;48.746;9.174;2023-12-20T04:55:28;0.50;;;0.30;;
9914;SDS011;4996;48.746;9.174;2023-12-20T04:57:54;0.40;;;0.30;;
9914;SDS011;4996;48.746;9.174;2023-12-20T05:00:20;0.67;;;0.33;;
9914;SDS011;4996;48.746;9.174;2023-12-20T05:02:45;1.03;;;0.40;;
9914;SDS011;4996;48.746;9.174;2023-12-20T05:05:11;0.40;;;0.23;;
9914;SDS011;4996;48.746;9.174;2023-12-20T05:07:36;0.50;;;0.30;;
9914;SDS011;4996;48.746;9.174;2023-12-20T05:10:02;0.40;;;0.30;;
9914;SDS011;4996;48.746;9.174;2023-12-20T05:12:29;0.40;;;0.30;;
9914;SDS011;4996;48.746;9.174;2023-12-20T05:14:55;0.40;;;0.30;;
9914;SDS011;4996;48.746;9.174;2023-12-20T05:17:20;0.50;;;0.30;;
9914;SDS011;4996;48.746;9.174;2023-12-20T05:19:46;0.50;;;0.40;;
9914;SDS011;4996;48.746;9.174;2023-12-20T05:22:11;0.40;;;0.20;;
9914;SDS011;4996;48.746;9.174;2023-12-20T05:24:37;0.90;;;0.50;;
9914;SDS011;4996;48.746;9.174;2023-12-20T05:27:03;0.60;;;0.30;;
9914;SDS011;4996;48.746;9.174;2023-12-20T05:29:28;2.20;;;0.43;;
9914;SDS011;4996;48.746;9.174;2023-12-20T05:31:54;0.40;;;0.20;;
9914;SDS011;4996;48.746;9.174;2023-12-20T05:34:19;1.20;;;0.50;;
9914;SDS011;4996;48.746;9.174;2023-12-20T05:36:45;0.50;;;0.30;;
9914;SDS011;4996;48.746;9.174;2023-12-20T05:39:11;0.50;;;0.40;;
9914;SDS011;4996;48.746;9.174;2023-12-20T05:41:36;1.00;;;0.33;;
9914;SDS011;4996;48.746;9.174;2023-12-20T05:44:02;0.40;;;0.30;;
9914;SDS011;4996;48.746;9.174;2023-12-20T05:46:27;0.73;;;0.37;;
9914;SDS011;4996;48.746;9.174;2023-12-20T05:48:53;1.80;;;0.57;;
9914;SDS011;4996;48.746;9.174;2023-12-20T05:51:18;2.07;;;0.37;;
9914;SDS011;4996;48.746;9.174;2023-12-20T05:53:44;18.17;;;6.20;;
9914;SDS011;4996;48.746;9.174;2023-12-20T05:56:10;1.67;;;1.40;;
9914;SDS011;4996;48.746;9.174;2023-12-20T05:58:35;1.23;;;0.70;;
9914;SDS011;4996;48.746;9.174;2023-12-20T06:01:03;2.03;;;0.50;;
9914;SDS011;4996;48.746;9.174;2023-12-20T06:03:29;0.50;;;0.40;;
9914;SDS011;4996;48.746;9.174;2023-12-20T06:05:55;0.70;;;0.40;;
9914;SDS011;4996;48.746;9.174;2023-12-20T06:08:20;1.57;;;0.40;;
9914;SDS011;4996;48.746;9.174;2023-12-20T06:10:46;0.70;;;0.50;;
9914;SDS011;4996;48.746;9.174;2023-12-20T06:13:11;0.80;;;0.50;;
9914;SDS011;4996;48.746;9.174;2023-12-20T06:15:38;0.90;;;0.67;;
9914;SDS011;4996;48.746;9.174;2023-12-20T06:18:03;0.93;;;0.47;;
9914;SDS011;4996;48.746;9.174;2023-12-20T06:20:29;0.80;;;0.50;;
9914;SDS011;4996;48.746;9.174;2023-12-20T06:22:54;1.00;;;0.80;;
9914;SDS011;4996;48.746;9.174;2023-12-20T06:25:20;5.13;;;1.97;;
9914;SDS011;4996;48.746;9.174;2023-12-20T06:27:46;5.33;;;2.07;;
9914;SDS011;4996;48.746;9.174;2023-12-20T06:30:11;1.80;;;0.80;;
9914;SDS011;4996;48.746;9.174;2023-12-20T06:32:37;0.90;;;0.60;;
9914;SDS011;4996;48.746;9.174;2023-12-20T06:35:04;0.60;;;0.40;;
9914;SDS011;4996;48.746;9.174;2023-12-20T06:37:30;0.50;;;0.40;;
9914;SDS011;4996;48.746;9.174;2023-12-20T06:39:56;0.90;;;0.50;;
9914;SDS011;4996;48.746;9.174;2023-12-20T06:42:22;1.20;;;0.73;;
9914;SDS011;4996;48.746;9.174;2023-12-20T06:44:48;4.00;;;1.70;;
9914;SDS011;4996;48.746;9.174;2023-12-20T06:47:13;2.60;;;1.53;;
9914;SDS011;4996;48.746;9.174;2023-12-20T06:49:39;1.70;;;1.13;;
9914;SDS011;4996;48.746;9.174;2023-12-20T06:52:05;6.50;;;1.90;;
9914;SDS011;4996;48.746;9.174;2023-12-20T06:54:31;1.90;;;1.10;;
9914;SDS011;4996;48.746;9.174;2023-12-20T06:56:59;2.07;;;1.10;;
9914;SDS011;4996;48.746;9.174;2023-12-20T06:59:24;2.30;;;0.93;;
9914;SDS011;4996;48.746;9.174;2023-12-20T07:01:51;5.33;;;3.50;;
9914;SDS011;4996;48.746;9.174;2023-12-20T07:04:16;6.50;;;2.80;;
9914;SDS011;4996;48.746;9.174;2023-12-20T07:06:45;3.07;;;1.50;;
9914;SDS011;4996;48.746;9.174;2023-12-20T07:09:11;3.10;;;1.33;;
9914;SDS011;4996;48.746;9.174;2023-12-20T07:11:38;3.50;;;1.83;;
9914;SDS011;4996;48.746;9.174;2023-12-20T07:14:03;2.67;;;0.83;;
9914;SDS011;4996;48.746;9.174;2023-12-20T07:16:29;1.73;;;1.20;;
9914;SDS011;4996;48.746;9.174;2023-12-20T07:18:54;5.30;;;1.20;;
9914;SDS011;4996;48.746;9.174;2023-12-20T07:21:21;4.50;;;2.20;;
9914;SDS011;4996;48.746;9.174;2023-12-20T07:23:46;2.70;;;1.20;;
9914;SDS011;4996;48.746;9.174;2023-12-20T07:26:12;3.20;;;1.53;;
9914;SDS011;4996;48.746;9.174;2023-12-20T07:28:37;3.00;;;1.80;;
9914;SDS011;4996;48.746;9.174;2023-12-20T07:31:03;1.20;;;1.00;;
9914;SDS011;4996;48.746;9.174;2023-12-20T07:33:28;1.73;;;1.40;;
9914;SDS011;4996;48.746;9.174;2023-12-20T07:35:54;1.50;;;1.07;;
9914;SDS011;4996;48.746;9.174;2023-12-20T07:38:20;2.30;;;1.17;;
9914;SDS011;4996;48.746;9.174;2023-12-20T07:40:45;1.50;;;1.40;;
9914;SDS011;4996;48.746;9.174;2023-12-20T07:43:11;1.30;;;0.93;;
9914;SDS011;4996;48.746;9.174;2023-12-20T07:45:37;5.03;;;2.10;;
9914;SDS011;4996;48.746;9.174;2023-12-20T07:48:03;2.90;;;1.80;;
9914;SDS011;4996;48.746;9.174;2023-12-20T07:50:29;3.60;;;2.30;;
9914;SDS011;4996;48.746;9.174;2023-12-20T07:52:55;4.37;;;1.93;;
9914;SDS011;4996;48.746;9.174;2023-12-20T07:55:20;3.90;;;2.67;;
9914;SDS011;4996;48.746;9.174;2023-12-20T07:57:46;10.13;;;2.97;;
9914;SDS011;4996;48.746;9.174;2023-12-20T08:00:12;6.47;;;3.47;;
9914;SDS011;4996;48.746;9.174;2023-12-20T08:02:37;4.00;;;3.20;;
9914;SDS011;4996;48.746;9.174;2023-12-20T08:05:03;4.03;;;2.93;;
9914;SDS011;4996;48.746;9.174;2023-12-20T08:07:29;7.03;;;3.30;;
9914;SDS011;4996;48.746;9.174;2023-12-20T08:09:54;3.20;;;2.50;;
9914;SDS011;4996;48.746;9.174;2023-12-20T08:12:21;4.07;;;2.57;;
9914;SDS011;4996;48.746;9.174;2023-12-20T08:14:47;2.33;;;2.03;;
9914;SDS011;4996;48.746;9.174;2023-12-20T08:17:13;2.90;;;2.07;;
9914;SDS011;4996;48.746;9.174;2023-12-20T08:19:41;9.10;;;2.47;;
9914;SDS011;4996;48.746;9.174;2023-12-20T08:22:06;2.33;;;1.93;;
9914;SDS011;4996;48.746;9.174;2023-12-20T08:24:32;6.00;;;2.93;;
9914;SDS011;4996;48.746;9.174;2023-12-20T08:26:57;4.23;;;2.30;;
9914;SDS011;4996;48.746;9.174;2023-12-20T08:29:23;3.57;;;2.50;;
9914;SDS011;4996;48.746;9.174;2023-12-20T08:31:52;5.53;;;3.30;;
9914;SDS011;4996;48.746;9.174;2023-12-20T08:34:19;4.67;;;3.40;;
9914;SDS011;4996;48.746;9.174;2023-12-20T08:36:44;4.80;;;3.20;;
9914;SDS011;4996;48.746;9.174;2023-12-20T08:39:10;8.73;;;3.50;;
9914;SDS011;4996;48.746;9.174;2023-12-20T08:41:35;4.60;;;3.30;;
9914;SDS011;4996;48.746;9.174;2023-12-20T08:44:02;4.00;;;2.83;;
9914;SDS011;4996;48.746;9.174;2023-12-20T08:46:28;3.33;;;3.03;;
9914;SDS011;4996;48.746;9.174;2023-12-20T08:48:53;4.37;;;2.53;;
9914;SDS011;4996;48.746;9.174;2023-12-20T08:51:19;5.83;;;4.67;;
9914;SDS011;4996;48.746;9.174;2023-12-20T08:53:44;5.63;;;4.37;;
9914;SDS011;4996;48.746;9.174;2023-12-20T08:56:11;4.60;;;2.58;;
9914;SDS011;4996;48.746;9.174;2023-12-20T08:58:37;5.27;;;3.60;;
9914;SDS011;4996;48.746;9.174;2023-12-20T09:01:02;6.30;;;3.17;;
9914;SDS011;4996;48.746;9.174;2023-12-20T09:03:28;3.07;;;2.60;;
9914;SDS011;4996;48.746;9.174;2023-12-20T09:05:53;6.10;;;3.10;;
9914;SDS011;4996;48.746;9.174;2023-12-20T09:08:19;3.93;;;3.47;;
9914;SDS011;4996;48.746;9.174;2023-12-20T09:10:44;4.23;;;3.10;;
9914;SDS011;4996;48.746;9.174;2023-12-20T09:13:10;3.57;;;3.17;;
9914;SDS011;4996;48.746;9.174;2023-12-20T09:15:35;3.57;;;2.70;;
9914;SDS011;4996;48.746;9.174;2023-12-20T09:18:01;5.80;;;2.63;;
9914;SDS011;4996;48.746;9.174;2023-12-20T09:20:27;2.83;;;2.40;;
9914;SDS011;4996;48.746;9.174;2023-12-20T09:22:53;4.37;;;3.03;;
9914;SDS011;4996;48.746;9.174;2023-12-20T09:25:18;5.43;;;2.70;;
9914;SDS011;4996;48.746;9.174;2023-12-20T09:27:47;5.47;;;2.60;;
9914;SDS011;4996;48.746;9.174;2023-12-20T09:30:12;6.50;;;2.33;;
9914;SDS011;4996;48.746;9.174;2023-12-20T09:32:38;3.53;;;2.43;;
9914;SDS011;4996;48.746;9.174;2023-12-20T09:35:03;4.73;;;1.73;;
9914;SDS011;4996;48.746;9.174;2023-12-20T09:37:31;2.73;;;1.93;;
9914;SDS011;4996;48.746;9.174;2023-12-20T09:39:56;2.40;;;1.53;;
9914;SDS011;4996;48.746;9.174;2023-12-20T09:42:29;2.20;;;1.87;;
9914;SDS011;4996;48.746;9.174;2023-12-20T09:45:03;3.60;;;1.60;;
9914;SDS011;4996;48.746;9.174;2023-12-20T09:47:32;4.73;;;2.13;;
9914;SDS011;4996;48.746;9.174;2023-12-20T09:49:57;1.93;;;1.13;;
9914;SDS011;4996;48.746;9.174;2023-12-20T09:52:23;3.23;;;1.60;;
9914;SDS011;4996;48.746;9.174;2023-12-20T09:54:49;4.80;;;1.93;;
9914;SDS011;4996;48.746;9.174;2023-12-20T09:57:17;2.23;;;1.70;;
9914;SDS011;4996;48.746;9.174;2023-12-20T09:59:43;5.60;;;1.57;;
9914;SDS011;4996;48.746;9.174;2023-12-20T10:02:09;2.80;;;1.30;;
9914;SDS011;4996;48.746;9.174;2023-12-20T10:04:38;4.63;;;0.93;;
9914;SDS011;4996;48.746;9.174;2023-12-20T10:07:09;4.00;;;1.30;;
9914;SDS011;4996;48.746;9.174;2023-12-20T10:09:35;4.20;;;1.53;;
9914;SDS011;4996;48.746;9.174;2023-12-20T10:12:01;3.17;;;1.30;;
9914;SDS011;4996;48.746;9.174;2023-12-20T10:14:26;5.67;;;1.37;;
9914;SDS011;4996;48.746;9.174;2023-12-20T10:16:52;2.07;;;1.17;;
9914;SDS011;4996;48.746;9.174;2023-12-20T10:19:19;1.47;;;0.83;;
9914;SDS011;4996;48.746;9.174;2023-12-20T10:21:44;6.47;;;1.20;;
9914;SDS011;4996;48.746;9.174;2023-12-20T10:24:11;3.93;;;1.90;;
9914;SDS011;4996;48.746;9.174;2023-12-20T10:26:42;3.00;;;1.20;;
9914;SDS011;4996;48.746;9.174;2023-12-20T10:29:08;6.33;;;1.90;;
9914;SDS011;4996;48.746;9.174;2023-12-20T10:31:34;4.27;;;1.20;;
9914;SDS011;4996;48.746;9.174;2023-12-20T10:34:01;4.90;;;1.13;;
9914;SDS011;4996;48.746;9.174;2023-12-20T10:36:28;2.70;;;1.73;;
9914;SDS011;4996;48.746;9.174;2023-12-20T10:38:56;4.47;;;1.10;;
9914;SDS011;4996;48.746;9.174;2023-12-20T10:41:25;8.03;;;1.40;;
9914;SDS011;4996;48.746;9.174;2023-12-20T10:43:53;2.97;;;1.53;;
9914;SDS011;4996;48.746;9.174;2023-12-20T10:46:26;3.70;;;1.20;;
9914;SDS011;4996;48.746;9.174;2023-12-20T10:48:53;1.20;;;1.00;;
9914;SDS011;4996;48.746;9.174;2023-12-20T10:51:19;2.40;;;1.23;;
9914;SDS011;4996;48.746;9.174;2023-12-20T10:53:46;2.33;;;1.00;;
9914;SDS011;4996;48.746;9.174;2023-12-20T10:56:14;12.77;;;1.73;;
9914;SDS011;4996;48.746;9.174;2023-12-20T10:58:47;8.10;;;1.70;;
9914;SDS011;4996;48.746;9.174;2023-12-20T11:01:14;1.70;;;1.20;;
9914;SDS011;4996;48.746;9.174;2023-12-20T11:03:43;3.17;;;1.57;;
9914;SDS011;4996;48.746;9.174;2023-12-20T11:06:19;1.83;;;1.10;;
9914;SDS011;4996;48.746;9.174;2023-12-20T11:08:52;7.70;;;1.37;;
9914;SDS011;4996;48.746;9.174;2023-12-20T11:14:13;6.00;;;1.17;;
9914;SDS011;4996;48.746;9.174;2023-12-20T11:16:48;3.40;;;1.50;;
9914;SDS011;4996;48.746;9.174;2023-12-20T11:19:16;1.53;;;0.90;;
9914;SDS011;4996;48.746;9.174;2023-12-20T11:21:42;3.30;;;1.00;;
9914;SDS011;4996;48.746;9.174;2023-12-20T11:24:07;1.73;;;1.17;;
9914;SDS011;4996;48.746;9.174;2023-12-20T11:26:34;1.57;;;1.47;;
9914;SDS011;4996;48.746;9.174;2023-12-20T11:31:58;4.97;;;1.43;;
9914;SDS011;4996;48.746;9.174;2023-12-20T11:34:29;1.50;;;1.30;;
9914;SDS011;4996;48.746;9.174;2023-12-20T11:36:57;3.00;;;1.80;;
9914;SDS011;4996;48.746;9.174;2023-12-20T11:39:25;1.50;;;1.33;;
9914;SDS011;4996;48.746;9.174;2023-12-20T11:41:53;3.27;;;1.33;;
9914;SDS011;4996;48.746;9.174;2023-12-20T11:44:21;2.27;;;1.30;;
9914;SDS011;4996;48.746;9.174;2023-12-20T11:46:46;2.83;;;1.30;;
9914;SDS011;4996;48.746;9.174;2023-12-20T11:49:12;1.80;;;1.20;;
9914;SDS011;4996;48.746;9.174;2023-12-20T11:51:40;5.40;;;1.63;;
9914;SDS011;4996;48.746;9.174;2023-12-20T11:54:07;5.90;;;1.33;;
9914;SDS011;4996;48.746;9.174;2023-12-20T11:56:34;4.17;;;1.40;;
9914;SDS011;4996;48.746;9.174;2023-12-20T11:59:00;3.20;;;1.30;;
9914;SDS011;4996;48.746;9.174;2023-12-20T12:01:26;1.27;;;1.03;;
9914;SDS011;4996;48.746;9.174;2023-12-20T12:04:02;6.00;;;1.50;;
9914;SDS011;4996;48.746;9.174;2023-12-20T12:06:31;1.70;;;1.20;;
9914;SDS011;4996;48.746;9.174;2023-12-20T12:08:56;11.00;;;1.67;;
9914;SDS011;4996;48.746;9.174;2023-12-20T12:11:22;2.60;;;1.30;;
9914;SDS011;4996;48.746;9.174;2023-12-20T12:13:48;5.60;;;1.17;;
9914;SDS011;4996;48.746;9.174;2023-12-20T12:16:17;2.23;;;1.60;;
9914;SDS011;4996;48.746;9.174;2023-12-20T12:18:45;3.77;;;1.27;;
9914;SDS011;4996;48.746;9.174;2023-12-20T12:21:10;2.40;;;1.50;;
9914;SDS011;4996;48.746;9.174;2023-12-20T12:23:43;11.07;;;2.20;;
9914;SDS011;4996;48.746;9.174;2023-12-20T12:26:08;3.80;;;1.23;;
9914;SDS011;4996;48.746;9.174;2023-12-20T12:28:34;5.33;;;1.40;;
9914;SDS011;4996;48.746;9.174;2023-12-20T12:31:00;5.70;;;1.40;;
9914;SDS011;4996;48.746;9.174;2023-12-20T12:33:25;8.30;;;2.37;;
9914;SDS011;4996;48.746;9.174;2023-12-20T12:35:51;3.23;;;1.53;;
9914;SDS011;4996;48.746;9.174;2023-12-20T12:38:20;3.97;;;1.47;;
9914;SDS011;4996;48.746;9.174;2023-12-20T12:40:46;4.07;;;1.43;;
9914;SDS011;4996;48.746;9.174;2023-12-20T12:43:12;4.10;;;1.67;;
9914;SDS011;4996;48.746;9.174;2023-12-20T12:45:38;2.73;;;1.23;;
9914;SDS011;4996;48.746;9.174;2023-12-20T12:48:04;4.43;;;1.57;;
9914;SDS011;4996;48.746;9.174;2023-12-20T12:50:30;2.57;;;1.50;;
9914;SDS011;4996;48.746;9.174;2023-12-20T12:52:56;3.10;;;1.80;;
9914;SDS011;4996;48.746;9.174;2023-12-20T12:55:21;2.40;;;1.23;;
9914;SDS011;4996;48.746;9.174;2023-12-20T12:57:47;3.43;;;1.83;;
9914;SDS011;4996;48.746;9.174;2023-12-20T13:00:13;4.13;;;1.53;;
9914;SDS011;4996;48.746;9.174;2023-12-20T13:02:39;3.47;;;1.80;;
9914;SDS011;4996;48.746;9.174;2023-12-20T13:05:07;1.77;;;1.20;;
9914;SDS011;4996;48.746;9.174;2023-12-20T13:07:33;4.20;;;1.20;;
9914;SDS011;4996;48.746;9.174;2023-12-20T13:09:59;7.80;;;1.30;;
9914;SDS011;4996;48.746;9.174;2023-12-20T13:12:25;7.70;;;1.30;;
9914;SDS011;4996;48.746;9.174;2023-12-20T13:14:51;0.97;;;0.87;;
9914;SDS011;4996;48.746;9.174;2023-12-20T13:17:16;2.50;;;0.90;;
9914;SDS011;4996;48.746;9.174;2023-12-20T13:19:42;2.50;;;1.40;;
9914;SDS011;4996;48.746;9.174;2023-12-20T13:22:07;1.30;;;1.03;;
9914;SDS011;4996;48.746;9.174;2023-12-20T13:24:33;9.20;;;1.17;;
9914;SDS011;4996;48.746;9.174;2023-12-20T13:26:59;1.47;;;1.00;;
9914;SDS011;4996;48.746;9.174;2023-12-20T13:29:25;6.47;;;1.30;;
9914;SDS011;4996;48.746;9.174;2023-12-20T13:31:52;2.20;;;1.40;;
9914;SDS011;4996;48.746;9.174;2023-12-20T13:34:17;3.67;;;1.20;;
9914;SDS011;4996;48.746;9.174;2023-12-20T13:36:44;2.70;;;0.70;;
9914;SDS011;4996;48.746;9.174;2023-12-20T13:39:13;7.50;;;2.00;;
9914;SDS011;4996;48.746;9.174;2023-12-20T13:41:38;1.47;;;0.90;;
9914;SDS011;4996;48.746;9.174;2023-12-20T13:44:04;1.17;;;0.90;;
9914;SDS011;4996;48.746;9.174;2023-12-20T13:46:30;6.63;;;1.10;;
9914;SDS011;4996;48.746;9.174;2023-12-20T13:48:56;2.03;;;1.00;;
9914;SDS011;4996;48.746;9.174;2023-12-20T13:51:21;4.13;;;1.43;;
9914;SDS011;4996;48.746;9.174;2023-12-20T13:53:47;9.70;;;1.20;;
9914;SDS011;4996;48.746;9.174;2023-12-20T13:56:13;3.30;;;0.80;;
9914;SDS011;4996;48.746;9.174;2023-12-20T13:58:39;1.97;;;0.50;;
9914;SDS011;4996;48.746;9.174;2023-12-20T14:01:06;2.00;;;0.93;;
9914;SDS011;4996;48.746;9.174;2023-12-20T14:03:33;1.10;;;0.50;;
9914;SDS011;4996;48.746;9.174;2023-12-20T14:05:59;2.03;;;0.97;;
9914;SDS011;4996;48.746;9.174;2023-12-20T14:08:26;2.23;;;0.87;;
9914;SDS011;4996;48.746;9.174;2023-12-20T14:10:52;4.70;;;1.40;;
9914;SDS011;4996;48.746;9.174;2023-12-20T14:13:18;12.40;;;2.30;;
9914;SDS011;4996;48.746;9.174;2023-12-20T14:15:43;3.87;;;1.13;;
9914;SDS011;4996;48.746;9.174;2023-12-20T14:18:09;2.93;;;1.43;;
9914;SDS011;4996;48.746;9.174;2023-12-20T14:20:35;1.37;;;1.03;;
9914;SDS011;4996;48.746;9.174;2023-12-20T14:23:04;1.90;;;0.93;;
9914;SDS011;4996;48.746;9.174;2023-12-20T14:25:29;8.67;;;1.30;;
9914;SDS011;4996;48.746;9.174;2023-12-20T14:27:56;6.00;;;1.20;;
9914;SDS011;4996;48.746;9.174;2023-12-20T14:30:21;3.00;;;1.13;;
9914;SDS011;4996;48.746;9.174;2023-12-20T14:32:47;1.93;;;0.90;;
9914;SDS011;4996;48.746;9.174;2023-12-20T14:35:13;2.30;;;1.00;;
9914;SDS011;4996;48.746;9.174;2023-12-20T14:37:39;3.30;;;1.10;;
9914;SDS011;4996;48.746;9.174;2023-12-20T14:40:06;5.67;;;1.47;;
9914;SDS011;4996;48.746;9.174;2023-12-20T14:42:35;6.00;;;1.47;;
9914;SDS011;4996;48.746;9.174;2023-12-20T14:45:01;5.63;;;1.50;;
9914;SDS011;4996;48.746;9.174;2023-12-20T14:47:26;2.30;;;1.10;;
9914;SDS011;4996;48.746;9.174;2023-12-20T14:49:52;3.50;;;1.20;;
9914;SDS011;4996;48.746;9.174;2023-12-20T14:52:18;2.07;;;0.93;;
9914;SDS011;4996;48.746;9.174;2023-12-20T14:54:44;3.60;;;1.10;;
9914;SDS011;4996;48.746;9.174;2023-12-20T14:57:10;1.50;;;0.88;;
9914;SDS011;4996;48.746;9.174;2023-12-20T14:59:35;2.07;;;1.20;;
9914;SDS011;4996;48.746;9.174;2023-12-20T15:02:01;3.50;;;1.67;;
9914;SDS011;4996;48.746;9.174;2023-12-20T15:04:30;6.10;;;1.97;;
9914;SDS011;4996;48.746;9.174;2023-12-20T15:06:56;3.97;;;1.87;;
9914;SDS011;4996;48.746;9.174;2023-12-20T15:09:21;1.67;;;1.13;;
9914;SDS011;4996;48.746;9.174;2023-12-20T15:11:47;5.70;;;1.23;;
9914;SDS011;4996;48.746;9.174;2023-12-20T15:14:13;0.90;;;0.90;;